Time;durP1;ratioP1;P1;durP2;ratioP2;P2;SDS_P1;SDS_P2;PMS_P1;PMS_P2;Temp;Humidity;BMP_temperature;BMP_pressure;BME280_temperature;BME280_humidity;BME280_pressure;Samples;Min_cycle;Max_cycle;Signal;HPM_P1;HPM_P2
2021/05/14 00:00:08;;;;;;;9.65;7.12;;;;;;;12.80;78.70;99407.44;1796621;79;21233;-76
2021/05/14 00:02:36;;;;;;;9.10;6.17;;;;;;;12.79;78.07;99405.74;1796360;79;21084;-77
2021/05/14 00:05:03;;;;;;;11.40;7.40;;;;;;;12.78;78.21;99401.86;1796348;79;21239;-78
2021/05/14 00:07:30;;;;;;;10.60;7.90;;;;;;;12.79;78.33;99409.70;1796005;79;21158;-77
2021/05/14 00:09:58;;;;;;;15.15;6.87;;;;;;;12.78;78.60;99401.86;1796212;79;21199;-78
2021/05/14 00:12:25;;;;;;;8.83;6.55;;;;;;;12.78;78.54;99413.27;1796022;79;21096;-76
2021/05/14 00:14:52;;;;;;;12.50;7.17;;;;;;;12.77;78.68;99402.81;1796107;79;21909;-76
2021/05/14 00:17:19;;;;;;;10.72;7.33;;;;;;;12.76;78.86;99407.22;1795960;79;21095;-77
2021/05/14 00:19:45;;;;;;;10.85;6.72;;;;;;;12.75;78.78;99406.85;1796335;79;21210;-76
2021/05/14 00:22:12;;;;;;;10.55;6.90;;;;;;;12.74;78.74;99406.93;1796071;78;21607;-77
2021/05/14 00:24:39;;;;;;;11.60;7.60;;;;;;;12.71;79.17;99404.00;1796265;79;21104;-76
2021/05/14 00:27:07;;;;;;;10.50;7.53;;;;;;;12.71;79.16;99410.61;1790855;79;21078;-75
2021/05/14 00:29:33;;;;;;;11.20;6.90;;;;;;;12.72;79.36;99407.48;1782652;80;21066;-78
2021/05/14 00:32:00;;;;;;;10.05;6.97;;;;;;;12.71;79.70;99409.28;1782705;80;21201;-81
2021/05/14 00:34:27;;;;;;;11.40;7.67;;;;;;;12.71;79.43;99406.64;1783143;80;21098;-76
2021/05/14 00:36:55;;;;;;;12.58;7.72;;;;;;;12.71;79.40;99409.28;1783353;80;21169;-81
2021/05/14 00:39:22;;;;;;;10.72;7.25;;;;;;;12.69;79.38;99403.23;1785484;80;21115;-81
2021/05/14 00:41:50;;;;;;;12.80;8.55;;;;;;;12.70;79.61;99408.03;1784799;79;21077;-80
2021/05/14 00:44:33;;;;;;;11.57;8.15;;;;;;;12.68;79.30;99398.91;1784772;80;20988;-78
2021/05/14 00:47:03;;;;;;;9.50;7.25;;;;;;;12.70;79.53;99403.62;1786242;79;21067;-77
2021/05/14 00:49:30;;;;;;;12.73;8.05;;;;;;;12.69;79.44;99403.23;1810988;79;21091;-76
2021/05/14 00:51:57;;;;;;;10.13;8.00;;;;;;;12.68;79.59;99402.02;1810044;79;21182;-77
2021/05/14 00:54:25;;;;;;;12.88;8.48;;;;;;;12.67;79.70;99402.47;1809789;79;21067;-78
2021/05/14 00:56:52;;;;;;;11.50;8.48;;;;;;;12.67;79.79;99397.18;1740944;81;21107;-78
2021/05/14 00:59:19;;;;;;;14.33;7.70;;;;;;;12.65;79.76;99397.73;1799589;79;21258;-77
2021/05/14 01:01:46;;;;;;;14.35;8.48;;;;;;;12.67;79.88;99401.62;1790884;79;21071;-77
2021/05/14 01:04:13;;;;;;;13.95;8.58;;;;;;;12.66;79.70;99399.94;1790716;80;21652;-78
2021/05/14 01:06:41;;;;;;;12.60;8.30;;;;;;;12.66;79.82;99400.78;1790627;80;21181;-76
2021/05/14 01:09:08;;;;;;;19.32;8.95;;;;;;;12.63;80.23;99396.12;1791049;80;21098;-77
2021/05/14 01:11:37;;;;;;;13.60;8.28;;;;;;;12.63;79.89;99400.09;1793341;79;20955;-80
2021/05/14 01:14:03;;;;;;;15.15;8.85;;;;;;;12.63;80.01;99402.28;1792997;80;21565;-79
2021/05/14 01:16:30;;;;;;;13.50;9.20;;;;;;;12.62;80.34;99403.20;1791038;80;21383;-77
2021/05/14 01:18:58;;;;;;;13.98;10.05;;;;;;;12.63;80.55;99403.60;1791220;80;21086;-78
2021/05/14 01:21:27;;;;;;;13.98;9.15;;;;;;;12.62;80.30;99392.64;1790279;79;21055;-77
2021/05/14 01:23:54;;;;;;;18.10;10.20;;;;;;;12.61;80.38;99396.23;1791002;80;21070;-77
2021/05/14 01:26:23;;;;;;;21.57;11.15;;;;;;;12.61;79.88;99397.55;1792391;79;21046;-78
2021/05/14 01:28:50;;;;;;;13.68;9.48;;;;;;;12.58;80.07;99393.30;1810112;79;21213;-78
2021/05/14 01:31:17;;;;;;;16.30;10.70;;;;;;;12.56;79.83;99396.50;1809735;79;21048;-78
2021/05/14 01:33:45;;;;;;;17.77;11.63;;;;;;;12.56;80.06;99395.62;1741195;82;21088;-78
2021/05/14 01:36:13;;;;;;;19.20;11.45;;;;;;;12.54;80.00;99392.24;1810249;79;21055;-79
2021/05/14 01:38:40;;;;;;;13.35;9.73;;;;;;;12.53;79.89;99395.80;1741197;82;21586;-75
2021/05/14 01:41:07;;;;;;;16.27;9.80;;;;;;;12.50;79.74;99394.67;1810010;78;21749;-75
2021/05/14 01:43:34;;;;;;;13.75;10.50;;;;;;;12.52;79.69;99399.40;1740619;81;21150;-75
2021/05/14 01:46:03;;;;;;;13.60;9.38;;;;;;;12.50;79.79;99389.39;1807408;79;21153;-75
2021/05/14 01:48:30;;;;;;;16.87;10.80;;;;;;;12.50;79.79;99389.39;1738490;81;21124;-74
2021/05/14 01:51:11;;;;;;;14.83;10.13;;;;;;;12.49;79.70;99388.98;1807638;79;21190;-79
2021/05/14 01:53:39;;;;;;;14.55;10.75;;;;;;;12.46;79.77;99386.53;1738461;82;21517;-79
2021/05/14 01:56:06;;;;;;;14.70;10.05;;;;;;;12.44;79.99;99392.36;1738351;82;21240;-77
2021/05/14 01:58:33;;;;;;;15.28;9.53;;;;;;;12.43;79.71;99388.88;1807424;79;21119;-80
2021/05/14 02:01:00;;;;;;;13.75;10.58;;;;;;;12.41;79.85;99391.23;1807307;79;21194;-77
2021/05/14 02:03:27;;;;;;;17.10;11.00;;;;;;;12.39;79.56;99389.50;1807245;79;22150;-78
2021/05/14 02:05:54;;;;;;;13.58;9.70;;;;;;;12.38;79.61;99383.02;1738407;82;21131;-78
2021/05/14 02:08:21;;;;;;;17.12;10.43;;;;;;;12.37;80.10;99391.37;1806953;79;21210;-77
2021/05/14 02:10:48;;;;;;;15.65;10.30;;;;;;;12.36;79.43;99383.09;1738274;82;21107;-75
2021/05/14 02:13:14;;;;;;;16.05;10.88;;;;;;;12.36;79.15;99388.84;1807047;79;21036;-76
2021/05/14 02:15:41;;;;;;;15.88;10.80;;;;;;;12.34;78.70;99379.68;1738340;82;21618;-77
2021/05/14 02:18:10;;;;;;;19.32;10.43;;;;;;;12.34;79.00;99382.80;1807156;79;21593;-76
2021/05/14 02:20:37;;;;;;;14.70;10.43;;;;;;;12.33;79.07;99383.27;1738778;82;21130;-77
2021/05/14 02:23:04;;;;;;;13.15;9.75;;;;;;;12.33;79.05;99385.03;1738288;82;21052;-77
2021/05/14 02:25:34;;;;;;;16.12;10.45;;;;;;;12.33;79.02;99387.23;1807581;79;21103;-78
2021/05/14 02:28:02;;;;;;;15.95;10.30;;;;;;;12.32;79.30;99385.51;1734462;82;21673;-77
2021/05/14 02:30:29;;;;;;;17.17;9.58;;;;;;;12.30;79.13;99386.06;1763533;81;21670;-79
2021/05/14 02:32:56;;;;;;;16.80;9.75;;;;;;;12.29;78.89;99384.37;1743983;81;21076;-79
2021/05/14 02:35:23;;;;;;;14.28;9.48;;;;;;;12.28;78.91;99373.89;1732013;83;20948;-78
2021/05/14 02:37:49;;;;;;;13.45;9.40;;;;;;;12.28;78.85;99380.02;1782794;77;21038;-80
2021/05/14 02:40:16;;;;;;;15.18;10.93;;;;;;;12.27;78.85;99379.64;1783050;77;20896;-81
2021/05/14 02:42:43;;;;;;;13.30;9.60;;;;;;;12.27;78.86;99384.92;1782880;77;21043;-81
2021/05/14 02:45:12;;;;;;;14.53;10.32;;;;;;;12.26;79.11;99384.55;1776929;79;21118;-80
2021/05/14 02:47:40;;;;;;;13.40;9.25;;;;;;;12.27;78.83;99383.60;1771799;81;21055;-80
2021/05/14 02:50:08;;;;;;;15.48;9.65;;;;;;;12.28;78.94;99383.97;1772071;81;21107;-80
2021/05/14 02:52:35;;;;;;;20.65;11.35;;;;;;;12.28;78.71;99377.38;1771573;81;21142;-80
2021/05/14 02:56:05;;;;;;;14.05;10.48;;;;;;;12.33;78.31;99375.34;1788223;79;22405;-77
2021/05/14 02:58:32;;;;;;;16.77;11.30;;;;;;;12.27;78.28;99370.88;1750191;80;21106;-77
2021/05/14 03:00:59;;;;;;;15.40;11.48;;;;;;;12.26;78.40;99370.03;1750566;80;21691;-76
2021/05/14 03:03:26;;;;;;;15.50;11.20;;;;;;;12.25;78.55;99374.91;1750332;80;21024;-77
2021/05/14 03:05:53;;;;;;;15.35;10.25;;;;;;;12.24;78.33;99367.95;1750390;80;21098;-77
2021/05/14 03:08:20;;;;;;;14.18;9.95;;;;;;;12.23;78.23;99366.23;1750357;80;21089;-77
2021/05/14 03:10:47;;;;;;;12.35;9.55;;;;;;;12.24;78.79;99371.91;1751376;80;21027;-78
2021/05/14 03:13:14;;;;;;;13.60;8.85;;;;;;;12.25;78.29;99367.00;1752010;80;21114;-78
2021/05/14 03:15:41;;;;;;;14.60;10.98;;;;;;;12.27;78.35;99370.88;1734374;81;21658;-79
2021/05/14 03:18:09;;;;;;;11.90;9.63;;;;;;;12.29;78.00;99367.22;1725516;83;20959;-80
2021/05/14 03:20:36;;;;;;;16.02;9.95;;;;;;;12.32;77.61;99373.63;1725530;82;21601;-78
2021/05/14 03:23:03;;;;;;;16.10;10.48;;;;;;;12.36;76.95;99367.25;1725498;82;21116;-79
2021/05/14 03:25:29;;;;;;;13.25;9.15;;;;;;;12.39;76.64;99361.78;1726049;83;21179;-80
2021/05/14 03:27:56;;;;;;;14.35;10.10;;;;;;;12.43;76.03;99369.55;1721431;82;21055;-77
2021/05/14 03:30:23;;;;;;;15.00;10.03;;;;;;;12.45;75.84;99370.31;1719825;83;21625;-79
2021/05/14 03:32:50;;;;;;;15.63;9.58;;;;;;;12.47;75.42;99367.09;1719317;83;21099;-79
2021/05/14 03:35:17;;;;;;;12.25;9.43;;;;;;;12.49;75.45;99367.41;1718787;83;21708;-79
2021/05/14 03:37:44;;;;;;;14.50;8.93;;;;;;;12.53;75.49;99368.07;1718880;83;21096;-78
2021/05/14 03:40:33;;;;;;;13.83;9.55;;;;;;;12.57;75.19;99366.97;1718945;83;21229;-78
2021/05/14 03:42:48;;;;;;;16.20;10.25;;;;;;;12.61;75.09;99371.14;1716491;82;21237;-80
2021/05/14 03:45:16;;;;;;;14.05;10.03;;;;;;;12.65;74.80;99370.00;1749292;80;21566;-79
2021/05/14 03:47:44;;;;;;;15.00;10.13;;;;;;;12.75;74.33;99363.26;1749496;81;21255;-78
2021/05/14 03:50:12;;;;;;;15.78;10.03;;;;;;;12.85;74.33;99361.41;1704974;83;21179;-81
2021/05/14 03:52:39;;;;;;;13.18;9.00;;;;;;;12.90;73.45;99364.62;1686599;83;21090;-82
2021/05/14 03:55:08;;;;;;;12.40;8.38;;;;;;;12.93;73.81;99365.75;1705614;83;21108;-80
2021/05/14 03:57:34;;;;;;;11.93;8.88;;;;;;;12.94;73.14;99368.31;1695084;84;21113;-79
2021/05/14 04:00:06;;;;;;;14.45;8.90;;;;;;;12.93;73.37;99365.75;1735456;81;21656;-81
2021/05/14 04:02:34;;;;;;;10.65;8.70;;;;;;;12.97;73.19;99367.28;1735055;81;21206;-80
2021/05/14 04:05:01;;;;;;;13.28;9.15;;;;;;;12.98;73.02;99362.39;1735626;81;21660;-83
2021/05/14 04:07:28;;;;;;;15.05;10.25;;;;;;;13.02;72.85;99365.20;1734678;81;21084;-81
2021/05/14 04:15:10;;;;;;;12.07;8.15;;;;;;;13.09;72.09;99365.25;1734774;82;21072;-78
2021/05/14 04:17:41;;;;;;;12.13;9.18;;;;;;;13.11;71.71;99367.78;1721297;82;21245;-79
2021/05/14 04:20:08;;;;;;;14.23;9.03;;;;;;;13.11;71.67;99356.76;1731823;82;21020;-80
2021/05/14 04:22:35;;;;;;;12.47;8.35;;;;;;;13.13;71.93;99357.48;1680603;84;21624;-79
2021/05/14 04:25:01;;;;;;;13.70;8.83;;;;;;;13.16;72.33;99353.84;1735247;82;21063;-80
2021/05/14 04:27:28;;;;;;;16.25;11.12;;;;;;;13.20;72.65;99360.17;1678281;84;21107;-78
2021/05/14 04:29:56;;;;;;;14.13;9.75;;;;;;;13.23;72.14;99362.63;1734870;82;21629;-80
2021/05/14 04:32:23;;;;;;;15.93;10.78;;;;;;;13.31;71.85;99353.41;1734091;82;21142;-78
2021/05/14 04:34:50;;;;;;;13.55;8.58;;;;;;;13.35;71.48;99349.64;1655401;84;21072;-71
2021/05/14 04:37:17;;;;;;;13.58;9.15;;;;;;;13.39;71.86;99349.84;1731558;81;21012;-71
2021/05/14 04:39:43;;;;;;;12.45;8.60;;;;;;;13.52;71.16;99348.59;1733351;82;21806;-74
2021/05/14 04:42:10;;;;;;;15.55;9.83;;;;;;;13.71;69.78;99337.27;1734149;81;21115;-74
2021/05/14 04:44:40;;;;;;;14.47;9.20;;;;;;;13.77;69.55;99346.60;1693923;84;21111;-72
2021/05/14 04:47:07;;;;;;;13.65;9.03;;;;;;;13.78;69.25;99339.90;1730906;81;22367;-74
2021/05/14 04:49:34;;;;;;;11.43;8.73;;;;;;;13.82;68.72;99333.92;1734467;81;21126;-72
2021/05/14 04:52:01;;;;;;;17.50;9.38;;;;;;;13.90;68.14;99336.95;1734570;81;21114;-73
2021/05/14 04:54:28;;;;;;;20.02;9.55;;;;;;;14.13;68.34;99337.28;1724210;81;21092;-72
2021/05/14 04:56:55;;;;;;;17.50;9.55;;;;;;;14.73;66.42;99330.27;1730452;81;21165;-72
2021/05/14 04:59:22;;;;;;;15.28;8.78;;;;;;;15.48;63.50;99330.88;1730508;81;22246;-74
2021/05/14 05:01:49;;;;;;;14.18;9.10;;;;;;;16.10;61.92;99326.94;1730700;81;21111;-72
2021/05/14 05:04:17;;;;;;;11.63;8.60;;;;;;;16.60;60.10;99324.64;1736611;81;21845;-72
2021/05/14 05:06:44;;;;;;;12.65;8.28;;;;;;;17.08;57.80;99316.59;1736718;82;21091;-76
2021/05/14 05:09:10;;;;;;;11.57;8.00;;;;;;;17.60;57.74;99324.52;1736878;81;21087;-73
2021/05/14 05:11:39;;;;;;;16.07;7.65;;;;;;;18.14;54.88;99313.09;1736564;81;21075;-75
2021/05/14 05:14:07;;;;;;;17.67;8.10;;;;;;;18.17;53.91;99314.16;1731777;82;21202;-74
2021/05/14 05:16:33;;;;;;;12.10;8.23;;;;;;;17.84;54.76;99317.75;1735798;82;21115;-73
2021/05/14 05:19:01;;;;;;;16.73;8.20;;;;;;;17.67;55.25;99319.06;1731634;81;21102;-74
2021/05/14 05:21:28;;;;;;;10.35;7.53;;;;;;;17.77;56.00;99320.02;1724534;82;21136;-74
2021/05/14 05:23:55;;;;;;;13.32;8.63;;;;;;;18.24;54.29;99306.51;1718667;82;21074;-73
2021/05/14 05:26:24;;;;;;;11.28;7.60;;;;;;;18.70;52.62;99302.70;1728053;82;21099;-72
2021/05/14 05:28:51;;;;;;;12.95;7.60;;;;;;;19.11;51.29;99302.88;1735648;82;21145;-74
2021/05/14 05:31:18;;;;;;;13.58;6.87;;;;;;;19.42;50.62;99313.94;1736440;82;21092;-73
2021/05/14 05:33:45;;;;;;;24.60;8.30;;;;;;;19.74;49.35;99289.41;1736444;82;22088;-73
2021/05/14 05:36:12;;;;;;;9.10;6.40;;;;;;;19.93;48.93;99291.31;1733236;82;21071;-73
2021/05/14 05:38:39;;;;;;;8.65;6.20;;;;;;;20.16;48.97;99292.76;1734857;81;21158;-74
2021/05/14 05:41:06;;;;;;;10.48;6.20;;;;;;;20.09;47.54;99280.94;1724235;82;21186;-73
2021/05/14 05:43:33;;;;;;;9.53;6.70;;;;;;;19.86;48.00;99287.84;1698133;84;21311;-74
2021/05/14 05:46:00;;;;;;;13.45;6.83;;;;;;;19.60;48.78;99289.26;1733250;81;21075;-74
2021/05/14 05:48:28;;;;;;;11.48;7.60;;;;;;;19.22;49.68;99292.97;1739204;81;21151;-74
2021/05/14 05:50:55;;;;;;;19.15;7.37;;;;;;;19.04;51.36;99287.38;1738126;81;21645;-74
2021/05/14 05:53:22;;;;;;;24.35;9.13;;;;;;;19.13;51.08;99290.25;1736762;81;21167;-74
2021/05/14 05:55:49;;;;;;;13.60;6.83;;;;;;;19.32;51.77;99295.67;1732050;81;21099;-75
2021/05/14 05:58:16;;;;;;;13.95;6.95;;;;;;;19.50;50.63;99291.41;1736181;81;21072;-72
2021/05/14 06:00:44;;;;;;;11.15;6.35;;;;;;;19.68;50.64;99285.44;1736597;81;21063;-73
2021/05/14 06:03:11;;;;;;;10.80;5.90;;;;;;;19.76;48.85;99280.30;1735355;82;21534;-73
2021/05/14 06:05:40;;;;;;;13.03;6.25;;;;;;;19.57;49.05;99277.02;1736710;81;21091;-72
2021/05/14 06:08:07;;;;;;;8.43;6.05;;;;;;;19.38;49.93;99273.80;1726904;81;21089;-72
2021/05/14 06:10:35;;;;;;;13.03;5.85;;;;;;;19.30;50.27;99276.27;1721960;81;21860;-71
2021/05/14 06:13:02;;;;;;;9.40;5.95;;;;;;;19.18;50.67;99275.52;1720386;81;21062;-71
2021/05/14 06:15:29;;;;;;;10.00;6.17;;;;;;;19.12;50.62;99272.06;1715926;82;21619;-73
2021/05/14 06:17:56;;;;;;;10.78;5.97;;;;;;;18.98;50.77;99269.25;1725374;82;21095;-73
2021/05/14 06:20:25;;;;;;;7.33;5.33;;;;;;;19.22;49.71;99264.09;1727948;82;21126;-72
2021/05/14 06:22:52;;;;;;;11.03;5.55;;;;;;;19.42;49.78;99259.20;1717590;81;21375;-71
2021/05/14 06:25:19;;;;;;;8.65;5.45;;;;;;;19.82;49.06;99261.04;1715070;81;21129;-71
2021/05/14 06:27:46;;;;;;;7.35;5.30;;;;;;;19.89;47.82;99239.47;1719451;81;21157;-70
2021/05/14 06:30:14;;;;;;;9.95;5.22;;;;;;;20.00;46.98;99249.70;1725608;81;21685;-72
2021/05/14 06:32:42;;;;;;;8.93;5.35;;;;;;;20.02;47.03;99248.56;1728655;81;21084;-71
2021/05/14 06:35:11;;;;;;;8.93;5.42;;;;;;;20.06;47.48;99242.44;1720955;81;21257;-72
2021/05/14 06:37:39;;;;;;;9.95;5.17;;;;;;;20.09;47.75;99250.20;1731973;82;21163;-71
2021/05/14 06:40:07;;;;;;;11.95;4.92;;;;;;;20.08;48.11;99249.83;1722788;81;21173;-71
2021/05/14 06:42:34;;;;;;;12.70;5.45;;;;;;;20.08;48.15;99244.48;1730056;81;21138;-72
2021/05/14 06:45:03;;;;;;;15.45;5.42;;;;;;;20.39;47.56;99240.36;1712088;81;21112;-72
2021/05/14 06:47:30;;;;;;;8.98;5.92;;;;;;;20.68;47.34;99243.89;1726969;82;21116;-70
2021/05/14 06:50:02;;;;;;;16.02;6.08;;;;;;;21.30;45.83;99239.41;1727314;81;21953;-71
2021/05/14 06:52:26;;;;;;;9.65;5.45;;;;;;;21.48;45.25;99232.31;1719076;82;21048;-70
2021/05/14 06:54:53;;;;;;;10.93;5.50;;;;;;;21.68;44.64;99230.89;1716666;82;21681;-72
2021/05/14 06:57:21;;;;;;;13.83;5.70;;;;;;;21.73;45.00;99229.94;1741481;82;21121;-71
2021/05/14 06:59:48;;;;;;;13.00;6.00;;;;;;;21.78;44.51;99219.59;1738692;80;21127;-73
2021/05/14 07:02:15;;;;;;;11.38;5.60;;;;;;;21.84;44.21;99227.05;1740070;80;21256;-72
2021/05/14 07:04:41;;;;;;;9.65;6.00;;;;;;;21.94;43.85;99217.59;1745420;80;21277;-71
2021/05/14 07:07:08;;;;;;;9.55;5.58;;;;;;;21.99;43.86;99217.50;1699861;82;21087;-72
2021/05/14 07:09:35;;;;;;;10.00;4.25;;;;;;;22.07;43.81;99215.89;1689414;85;21770;-71
2021/05/14 07:12:02;;;;;;;11.03;4.10;;;;;;;22.14;41.46;99218.30;1686428;85;21093;-72
2021/05/14 07:14:29;;;;;;;9.58;4.22;;;;;;;22.29;42.32;99218.15;1686622;84;21127;-72
2021/05/14 07:16:56;;;;;;;8.53;4.15;;;;;;;22.41;41.71;99210.20;1686465;83;21632;-71
2021/05/14 07:19:25;;;;;;;10.25;4.72;;;;;;;22.39;41.61;99207.33;1685803;83;21095;-73
2021/05/14 07:21:52;;;;;;;8.03;3.72;;;;;;;22.48;42.23;99205.56;1668987;83;21534;-72
2021/05/14 07:24:19;;;;;;;6.17;3.55;;;;;;;22.71;40.97;99204.56;1686270;83;21653;-72
2021/05/14 07:26:46;;;;;;;11.50;4.00;;;;;;;22.86;40.34;99219.58;1685361;83;21099;-72
2021/05/14 07:29:13;;;;;;;6.92;3.50;;;;;;;22.54;39.88;99210.28;1686154;83;21031;-72
2021/05/14 07:31:42;;;;;;;5.35;3.40;;;;;;;22.28;40.63;99215.11;1686422;83;21111;-70
2021/05/14 07:34:09;;;;;;;6.72;3.65;;;;;;;22.03;41.83;99209.14;1684642;84;22422;-73
2021/05/14 07:36:36;;;;;;;7.95;4.17;;;;;;;21.95;42.95;99211.25;1684468;83;21289;-72
2021/05/14 07:39:03;;;;;;;7.00;3.60;;;;;;;21.98;42.45;99207.75;1670673;83;21302;-73
2021/05/14 07:41:32;;;;;;;6.42;3.00;;;;;;;21.99;42.47;99207.25;1675277;83;21074;-71
2021/05/14 07:43:58;;;;;;;7.08;3.45;;;;;;;21.77;42.10;99204.53;1685970;83;21524;-72
2021/05/14 07:46:25;;;;;;;8.45;3.80;;;;;;;21.78;42.27;99204.86;1685303;83;21233;-72
2021/05/14 07:48:53;;;;;;;10.38;4.47;;;;;;;21.88;42.39;99196.27;1674292;83;21182;-71
2021/05/14 07:51:19;;;;;;;6.30;4.08;;;;;;;22.05;41.51;99205.81;1672594;83;21621;-72
2021/05/14 07:53:46;;;;;;;5.55;3.80;;;;;;;22.16;41.27;99198.38;1679879;84;21119;-72
2021/05/14 07:56:13;;;;;;;7.08;3.80;;;;;;;22.27;41.29;99195.14;1678823;83;21096;-72
2021/05/14 07:58:40;;;;;;;9.10;3.67;;;;;;;22.29;40.81;99180.60;1693923;83;21132;-73
2021/05/14 08:01:07;;;;;;;7.45;3.80;;;;;;;22.41;40.37;99195.45;1719663;81;21071;-74
2021/05/14 08:03:34;;;;;;;7.53;3.15;;;;;;;22.51;39.76;99195.85;1734890;81;21682;-74
2021/05/14 08:06:01;;;;;;;6.90;3.70;;;;;;;22.28;40.70;99196.33;1733843;81;21079;-75
2021/05/14 08:08:32;;;;;;;8.58;3.37;;;;;;;22.31;40.38;99186.63;1734343;82;21075;-71
2021/05/14 08:10:57;;;;;;;7.25;3.33;;;;;;;22.37;40.15;99193.23;1715683;81;21122;-73
2021/05/14 08:13:25;;;;;;;6.00;3.60;;;;;;;22.41;40.37;99198.13;1733731;81;21632;-74
2021/05/14 08:15:53;;;;;;;8.80;3.45;;;;;;;22.49;39.69;99195.16;1734156;81;21596;-72
2021/05/14 08:18:21;;;;;;;6.80;2.87;;;;;;;22.50;39.36;99188.31;1726119;81;21118;-72
2021/05/14 08:20:48;;;;;;;6.33;3.30;;;;;;;22.48;39.74;99197.52;1705143;82;21653;-72
2021/05/14 08:23:18;;;;;;;7.97;3.10;;;;;;;22.50;40.14;99184.76;1705208;82;21129;-72
2021/05/14 08:25:48;;;;;;;11.23;2.97;;;;;;;22.57;38.97;99180.48;1669455;84;21238;-71
2021/05/14 08:28:14;;;;;;;7.60;3.40;;;;;;;22.48;39.83;99190.81;1713848;82;21390;-73
2021/05/14 08:30:43;;;;;;;10.63;2.95;;;;;;;22.30;39.80;99187.64;1725573;81;21172;-73
2021/05/14 08:33:10;;;;;;;9.90;3.30;;;;;;;22.09;39.47;99184.41;1735263;81;21206;-72
2021/05/14 08:35:37;;;;;;;6.40;2.80;;;;;;;21.85;40.02;99182.32;1734580;81;21130;-72
2021/05/14 08:38:07;;;;;;;7.00;3.40;;;;;;;21.62;40.85;99190.78;1734730;81;21064;-71
2021/05/14 08:40:34;;;;;;;9.68;3.90;;;;;;;21.39;40.75;99184.96;1694932;84;21054;-71
2021/05/14 08:43:01;;;;;;;4.78;3.27;;;;;;;21.29;41.43;99194.89;1734934;82;21681;-71
2021/05/14 08:45:29;;;;;;;6.45;2.90;;;;;;;21.21;41.81;99188.08;1695056;84;22065;-72
2021/05/14 08:47:57;;;;;;;11.85;4.10;;;;;;;21.18;41.76;99187.05;1734295;82;21119;-72
2021/05/14 08:50:28;;;;;;;5.08;2.90;;;;;;;21.21;41.88;99194.77;1687431;84;21162;-73
2021/05/14 08:52:55;;;;;;;10.40;3.27;;;;;;;21.27;42.34;99196.88;1730246;81;21091;-72
2021/05/14 08:55:27;;;;;;;6.60;3.20;;;;;;;21.38;42.34;99194.00;1734610;81;21075;-73
2021/05/14 08:57:52;;;;;;;10.20;3.62;;;;;;;21.45;41.76;99201.81;1735403;81;21121;-72
2021/05/14 09:00:20;;;;;;;11.53;3.47;;;;;;;21.50;41.44;99195.51;1696002;84;21160;-71
2021/05/14 09:02:47;;;;;;;4.92;3.05;;;;;;;21.54;41.39;99198.75;1734793;82;21138;-72
2021/05/14 09:05:29;;;;;;;7.33;3.25;;;;;;;21.52;41.50;99195.38;1675230;84;21168;-71
2021/05/14 09:07:58;;;;;;;8.90;4.35;;;;;;;21.40;41.88;99200.09;1669767;85;21128;-72
2021/05/14 09:10:27;;;;;;;9.35;3.77;;;;;;;21.36;41.66;99200.00;1728824;82;21763;-71
2021/05/14 09:12:55;;;;;;;8.73;3.90;;;;;;;21.44;41.94;99201.95;1736391;82;21652;-73
2021/05/14 09:15:35;;;;;;;7.72;3.40;;;;;;;21.49;41.13;99196.52;1675797;84;21135;-72
2021/05/14 09:18:17;;;;;;;6.75;2.95;;;;;;;21.47;41.46;99195.82;1657927;85;27326;-72
2021/05/14 09:20:56;;;;;;;11.38;3.17;;;;;;;21.43;41.65;99205.14;1669212;85;21100;-72
2021/05/14 09:23:29;;;;;;;14.30;3.52;;;;;;;21.24;41.60;99199.86;1686012;84;21488;-72
2021/05/14 09:26:13;;;;;;;8.58;3.75;;;;;;;21.18;41.93;99200.44;1736797;82;21143;-72
2021/05/14 09:28:44;;;;;;;12.25;3.00;;;;;;;21.07;41.35;99205.00;1719540;82;21075;-72
2021/05/14 09:31:19;;;;;;;9.53;3.58;;;;;;;20.63;42.30;99197.98;1688619;84;21151;-70
2021/05/14 09:33:55;;;;;;;6.37;3.17;;;;;;;20.34;43.38;99207.36;1731887;81;21112;-73
2021/05/14 09:36:31;;;;;;;7.35;3.33;;;;;;;20.11;44.09;99215.66;1735405;81;21277;-73
2021/05/14 09:39:08;;;;;;;9.38;3.08;;;;;;;19.92;44.51;99210.28;1724595;81;21097;-71
2021/05/14 09:41:40;;;;;;;9.23;3.75;;;;;;;19.58;45.35;99218.64;1734425;81;21083;-73
2021/05/14 09:44:18;;;;;;;6.78;3.47;;;;;;;19.46;45.63;99220.58;1732425;81;21077;-70
2021/05/14 09:46:50;;;;;;;9.70;3.75;;;;;;;19.44;46.26;99213.20;1733033;81;21206;-70
2021/05/14 09:49:22;;;;;;;7.08;3.35;;;;;;;19.36;45.98;99214.34;1728097;81;21070;-72
2021/05/14 09:52:10;;;;;;;6.20;2.55;;;;;;;19.31;44.75;99206.41;1733065;81;21631;-72
2021/05/14 09:54:35;;;;;;;4.97;2.75;;;;;;;19.25;44.21;99203.77;1724598;82;22213;-74
2021/05/14 09:59:50;;;;;;;8.18;2.77;;;;;;;18.98;42.58;99186.53;1684807;84;21156;-73
2021/05/14 10:02:33;;;;;;;7.17;2.62;;;;;;;18.85;43.56;99195.23;1659778;85;21123;-75
2021/05/14 10:05:04;;;;;;;14.93;3.98;;;;;;;18.73;45.02;99196.27;1715383;82;21260;-73
2021/05/14 10:07:38;;;;;;;4.80;2.85;;;;;;;18.54;47.09;99199.64;1724129;81;21056;-73
2021/05/14 10:10:08;;;;;;;6.72;3.12;;;;;;;18.41;47.85;99202.52;1725771;81;21091;-72
2021/05/14 10:12:36;;;;;;;5.13;2.90;;;;;;;18.26;49.18;99200.63;1672198;84;21120;-74
2021/05/14 10:15:11;;;;;;;9.55;4.55;;;;;;;18.13;50.95;99198.16;1677145;84;21482;-75
2021/05/14 10:17:41;;;;;;;11.75;3.67;;;;;;;18.06;51.86;99202.31;1726875;81;21138;-74
2021/05/14 10:20:30;;;;;;;9.33;3.70;;;;;;;17.99;52.05;99227.74;1725500;81;21107;-74
2021/05/14 10:22:59;;;;;;;8.05;3.83;;;;;;;17.91;52.30;99231.05;1724479;81;21551;-73
2021/05/14 10:25:44;;;;;;;5.37;3.67;;;;;;;17.85;56.02;99225.37;1720742;81;21233;-75
2021/05/14 10:28:24;;;;;;;9.60;3.87;;;;;;;17.80;55.73;99221.22;1719556;82;21064;-73
2021/05/14 10:31:04;;;;;;;8.18;4.25;;;;;;;17.82;54.99;99221.98;1692752;82;21057;-72
2021/05/14 10:33:55;;;;;;;14.75;5.12;;;;;;;17.95;56.98;99221.00;1718819;82;21095;-73
2021/05/14 10:36:31;;;;;;;11.30;4.42;;;;;;;18.13;57.12;99219.48;1727544;82;21100;-73
2021/05/14 10:39:15;;;;;;;19.50;5.60;;;;;;;18.29;56.84;99215.06;1719600;82;21091;-76
2021/05/14 10:41:57;;;;;;;9.85;5.47;;;;;;;18.38;57.18;99212.08;1731174;82;21103;-75
2021/05/14 10:44:53;;;;;;;11.12;5.83;;;;;;;18.54;57.48;99204.97;1731315;81;21144;-73
2021/05/14 10:47:29;;;;;;;10.75;5.37;;;;;;;18.68;58.23;99206.00;1721680;81;21099;-74
2021/05/14 10:50:07;;;;;;;8.83;5.10;;;;;;;18.83;57.70;99211.36;1723811;82;21155;-73
2021/05/14 10:52:35;;;;;;;9.18;5.25;;;;;;;18.97;56.29;99195.50;1733985;82;21072;-74
2021/05/14 10:55:02;;;;;;;7.75;5.17;;;;;;;19.04;56.03;99201.16;1726048;82;21166;-75
2021/05/14 10:57:47;;;;;;;9.28;5.25;;;;;;;19.10;55.96;99206.46;1731041;81;21079;-73
2021/05/14 11:00:29;;;;;;;13.22;5.42;;;;;;;19.20;56.17;99206.00;1725064;81;22202;-74
2021/05/14 11:03:14;;;;;;;8.35;6.05;;;;;;;19.07;53.38;99209.75;1728159;81;21128;-74
2021/05/14 11:05:45;;;;;;;13.13;6.20;;;;;;;18.86;55.17;99212.45;1730454;82;21111;-74
2021/05/14 11:08:37;;;;;;;9.18;4.87;;;;;;;18.84;54.22;99204.20;1734880;81;21187;-74
2021/05/14 11:11:11;;;;;;;9.80;6.37;;;;;;;18.98;54.26;99206.55;1718940;81;21159;-73
2021/05/14 11:13:51;;;;;;;7.30;5.42;;;;;;;19.23;55.19;99197.72;1735279;82;21645;-74
2021/05/14 11:16:43;;;;;;;7.80;5.35;;;;;;;19.26;53.44;99196.13;1665467;84;21085;-72
2021/05/14 11:19:26;;;;;;;10.40;5.70;;;;;;;19.44;53.21;99197.64;1718255;82;21092;-73
2021/05/14 11:22:09;;;;;;;9.75;5.45;;;;;;;19.65;52.81;99189.07;1723542;82;21580;-72
2021/05/14 11:24:50;;;;;;;8.80;5.65;;;;;;;19.82;51.99;99188.91;1720067;81;21099;-70
2021/05/14 11:27:24;;;;;;;16.27;6.35;;;;;;;20.00;53.02;99180.21;1724514;81;21097;-72
2021/05/14 11:29:53;;;;;;;8.03;5.53;;;;;;;20.36;51.34;99186.68;1725297;81;21119;-72
2021/05/14 11:32:32;;;;;;;13.13;5.90;;;;;;;20.72;50.95;99176.22;1717314;82;21659;-73
2021/05/14 11:35:11;;;;;;;12.33;5.78;;;;;;;21.06;49.70;99181.88;1730736;82;21166;-72
2021/05/14 11:38:01;;;;;;;11.93;5.65;;;;;;;21.13;50.91;99170.92;1722776;81;21153;-73
2021/05/14 11:40:43;;;;;;;11.30;6.53;;;;;;;21.21;49.12;99165.33;1656533;85;21105;-77
2021/05/14 11:43:14;;;;;;;9.05;4.97;;;;;;;21.04;49.79;99162.94;1720074;81;22292;-72
2021/05/14 11:45:48;;;;;;;8.28;4.83;;;;;;;21.03;49.09;99165.29;1722839;82;21649;-73